UKKK

Kiev Zhuliany International Airport

Kiev, Ukraine
TAF UKKK 232303Z 2400/2424 23006G12MPS 4000 -RA BR OVC007 TX08/2412Z TN04/2404Z TEMPO 2400/2407 25010G16MPS 1200 SHRA BR BKN003 BKN012CB BECMG 2407/2408 26006G12MPS 9999 NSW BKN010 TEMPO 2408/2421 28009G14MPS 2100 -SHRA BKN007 BKN015CB
Issued Valid From Valid To
Oct-23 @ 23:03 UTC
(6 hours ago)
Oct-24 @ 00:00 UTC
(5 hours ago)
Oct-25 @ 00:00 UTC
(in 19 hours)
Oct-24 @ 00:00 to Oct-24 @ 07:00
TAF UKKK 232303Z 2400/2424 23006G12MPS 4000 -RA BR OVC007 TX08/2412Z TN04/2404Z
Wind Visibility Clouds Conditions
230° at 12 knots
 Gusting to 23 knots
4,007 meters
  • Overcast at 700' AGL
  • Light Rain
  • Mist
Temporary Oct-24 @ 00:00 to Oct-24 @ 07:00
TEMPO 2400/2407 25010G16MPS 1200 SHRA BR BKN003 BKN012CB
Wind Visibility Clouds Conditions
250° at 19 knots
 Gusting to 31 knots
1,207 meters
  • Broken at 300' AGL
  • Broken at 1,200' AGL
  • Rain
  • Mist
Becoming Oct-24 @ 07:00 to Oct-25 @ 00:00
BECMG 2407/2408 26006G12MPS 9999 NSW BKN010
Wind Visibility Clouds Conditions
260° at 12 knots
 Gusting to 23 knots
10,000+ meters
  • Broken at 1,000' AGL
Temporary Oct-24 @ 08:00 to Oct-24 @ 21:00
TEMPO 2408/2421 28009G14MPS 2100 -SHRA BKN007 BKN015CB
Wind Visibility Clouds Conditions
280° at 17 knots
 Gusting to 27 knots
2,092 meters
  • Broken at 700' AGL
  • Broken at 1,500' AGL
  • Light Rain
TAF UKKK 232303Z 2400/2424 23006G12MPS 4000 -RA BR OVC007 TX08/2412Z TN04/2404Z TEMPO 2400/2407 25010G16MPS 1200 SHRA BR BKN003 BKN012CB BECMG 2407/2408 26006G12MPS 9999 NSW BKN010 TEMPO 2408/2421 28009G14MPS 2100 -SHRA BKN007 BKN015CB
Issued Oct-23 @ 23:03 UTC
(6 hours ago)
Valid From Oct-24 @ 00:00 UTC
(5 hours ago)
Valid To Oct-25 @ 00:00 UTC
(in 19 hours)
Oct-24 @ 00:00 - Oct-24 @ 07:00
Wind Visibility
230° at 12 knots
 Gusting to 23 knots
4,007 meters
Clouds
  • Overcast at 700' AGL
Conditions
  • Light Rain
  • Mist
Temporary Oct-24 @ 00:00 - Oct-24 @ 07:00
Wind Visibility
250° at 19 knots
 Gusting to 31 knots
1,207 meters
Clouds
  • Broken at 300' AGL
  • Broken at 1,200' AGL
Conditions
  • Rain
  • Mist
Becoming Oct-24 @ 07:00 - Oct-25 @ 00:00
Wind Visibility
260° at 12 knots
 Gusting to 23 knots
10,000+ meters
Clouds
  • Broken at 1,000' AGL
Conditions
Temporary Oct-24 @ 08:00 - Oct-24 @ 21:00
Wind Visibility
280° at 17 knots
 Gusting to 27 knots
2,092 meters
Clouds
  • Broken at 700' AGL
  • Broken at 1,500' AGL
Conditions
  • Light Rain